createdAt,value
2023-07-30T00:00:36.773Z,6.40
2023-07-30T00:03:03.737Z,6.25
2023-07-30T00:05:30.600Z,6.48
2023-07-30T00:07:57.372Z,6.91
2023-07-30T00:10:24.244Z,6.90
2023-07-30T00:12:51.028Z,6.77
2023-07-30T00:15:17.997Z,6.46
2023-07-30T00:17:44.808Z,6.20
2023-07-30T00:20:12.029Z,6.67
2023-07-30T00:22:38.825Z,6.81
2023-07-30T00:25:06.049Z,6.87
2023-07-30T00:27:32.856Z,6.28
2023-07-30T00:29:59.700Z,6.47
2023-07-30T00:32:26.514Z,6.85
2023-07-30T00:34:53.351Z,6.28
2023-07-30T00:37:20.384Z,6.84
2023-07-30T00:39:47.326Z,7.04
2023-07-30T00:42:14.179Z,7.00
2023-07-30T00:44:42.282Z,6.80
2023-07-30T00:47:09.588Z,6.78
2023-07-30T00:49:36.582Z,7.09
2023-07-30T00:52:05.100Z,7.22
2023-07-30T00:54:32.062Z,6.89
2023-07-30T00:56:59.006Z,7.00
2023-07-30T00:59:26.909Z,7.09
2023-07-30T01:01:54.182Z,7.41
2023-07-30T01:04:21.159Z,7.17
2023-07-30T01:06:48.106Z,7.12
2023-07-30T01:09:15.381Z,7.36
2023-07-30T01:11:43.716Z,7.21
2023-07-30T01:14:11.177Z,6.44
2023-07-30T01:16:38.742Z,7.04
2023-07-30T01:19:07.107Z,7.32
2023-07-30T01:21:38.396Z,6.81
2023-07-30T01:24:05.598Z,6.25
2023-07-30T01:26:40.067Z,6.96
2023-07-30T01:29:13.270Z,6.98
2023-07-30T01:31:42.617Z,7.23
2023-07-30T01:34:12.511Z,6.69
2023-07-30T01:36:41.193Z,6.67
2023-07-30T01:39:10.572Z,6.83
2023-07-30T01:41:37.608Z,6.55
2023-07-30T01:44:04.795Z,6.21
2023-07-30T01:46:31.669Z,6.54
2023-07-30T01:48:58.547Z,6.60
2023-07-30T01:51:25.299Z,6.67
2023-07-30T01:53:52.484Z,6.81
2023-07-30T01:56:19.328Z,7.02
2023-07-30T01:58:46.094Z,6.78
2023-07-30T02:01:13.150Z,6.65
2023-07-30T02:03:40.135Z,7.02
2023-07-30T02:06:07.961Z,6.70
2023-07-30T02:08:34.808Z,6.87
2023-07-30T02:11:01.634Z,6.99
2023-07-30T02:13:28.564Z,7.15
2023-07-30T02:15:55.382Z,6.68
2023-07-30T02:18:22.312Z,6.90
2023-07-30T02:20:50.460Z,6.88
2023-07-30T02:23:17.540Z,6.74
2023-07-30T02:25:45.052Z,6.63
2023-07-30T02:28:13.369Z,6.71
2023-07-30T02:30:42.056Z,7.05
2023-07-30T02:33:08.833Z,6.59
2023-07-30T02:35:35.910Z,6.70
2023-07-30T02:38:02.721Z,6.76
2023-07-30T02:40:29.499Z,6.79
2023-07-30T02:42:56.401Z,6.86
2023-07-30T02:45:23.371Z,6.63
2023-07-30T02:47:50.268Z,6.76
2023-07-30T02:50:19.421Z,6.44
2023-07-30T02:52:47.825Z,6.68
2023-07-30T02:55:14.682Z,6.19
2023-07-30T02:57:41.455Z,6.16
2023-07-30T03:00:10.029Z,6.17
2023-07-30T03:02:36.880Z,5.91
2023-07-30T03:05:04.057Z,6.29
2023-07-30T03:07:31.910Z,6.43
2023-07-30T03:09:58.676Z,6.66
2023-07-30T03:12:25.390Z,6.58
2023-07-30T03:14:52.158Z,6.43
2023-07-30T03:17:19.009Z,6.97
2023-07-30T03:19:45.766Z,6.96
2023-07-30T03:22:12.535Z,6.94
2023-07-30T03:24:39.276Z,6.46
2023-07-30T03:27:06.596Z,6.43
2023-07-30T03:29:33.637Z,6.61
2023-07-30T03:32:00.480Z,6.39
2023-07-30T03:34:27.224Z,6.62
2023-07-30T03:36:54.040Z,6.34
2023-07-30T03:39:20.838Z,6.63
2023-07-30T03:41:47.652Z,6.68
2023-07-30T03:44:14.452Z,6.45
2023-07-30T03:46:41.257Z,6.87
2023-07-30T03:49:08.081Z,6.51
2023-07-30T03:51:35.131Z,6.67
2023-07-30T03:54:02.403Z,6.74
2023-07-30T03:56:29.336Z,6.69
2023-07-30T03:58:56.064Z,6.38
2023-07-30T04:01:22.997Z,6.49
2023-07-30T04:03:49.969Z,6.89
2023-07-30T04:06:16.806Z,6.14
2023-07-30T04:08:43.615Z,6.67
2023-07-30T04:11:10.401Z,6.94
2023-07-30T04:13:37.208Z,6.76
2023-07-30T04:16:06.237Z,6.98
2023-07-30T04:18:34.006Z,6.54
2023-07-30T04:21:00.775Z,6.86
2023-07-30T04:23:27.639Z,6.50
2023-07-30T04:25:54.510Z,7.34
2023-07-30T04:28:21.299Z,6.72
2023-07-30T04:30:48.310Z,6.74
2023-07-30T04:33:18.702Z,6.89
2023-07-30T04:35:45.764Z,7.41
2023-07-30T04:38:12.626Z,7.09
2023-07-30T04:40:40.817Z,7.74
2023-07-30T04:43:09.274Z,7.88
2023-07-30T04:45:36.885Z,7.68
2023-07-30T04:48:03.918Z,7.40
2023-07-30T04:50:30.782Z,7.85
2023-07-30T04:52:59.908Z,7.96
2023-07-30T04:55:26.769Z,8.06
2023-07-30T04:57:53.729Z,7.82
2023-07-30T05:00:20.632Z,7.75
2023-07-30T05:02:47.557Z,8.17
2023-07-30T05:05:14.420Z,8.32
2023-07-30T05:07:41.226Z,7.02
2023-07-30T05:10:11.242Z,7.74
2023-07-30T05:12:38.500Z,8.04
2023-07-30T05:15:06.130Z,7.59
2023-07-30T05:17:32.907Z,7.58
2023-07-30T05:19:59.698Z,7.46
2023-07-30T05:22:26.514Z,7.82
2023-07-30T05:24:53.386Z,7.96
2023-07-30T05:27:20.169Z,8.78
2023-07-30T05:29:49.253Z,8.99
2023-07-30T05:32:16.427Z,8.88
2023-07-30T05:34:43.488Z,8.80
2023-07-30T05:37:10.276Z,9.28
2023-07-30T05:39:37.067Z,9.30
2023-07-30T05:42:04.213Z,9.18
2023-07-30T05:44:31.117Z,9.60
2023-07-30T05:46:57.867Z,9.50
2023-07-30T05:49:24.659Z,9.90
2023-07-30T05:51:51.421Z,9.79
2023-07-30T05:54:19.095Z,10.60
2023-07-30T05:56:45.824Z,9.71
2023-07-30T05:59:12.668Z,10.40
2023-07-30T06:01:39.819Z,10.50
2023-07-30T06:04:06.923Z,9.90
2023-07-30T06:06:33.741Z,10.09
2023-07-30T06:09:00.548Z,9.36
2023-07-30T06:11:27.615Z,10.83
2023-07-30T06:13:54.363Z,10.59
2023-07-30T06:16:21.821Z,11.34
2023-07-30T06:18:48.748Z,11.20
2023-07-30T06:21:15.513Z,11.42
2023-07-30T06:23:42.284Z,10.95
2023-07-30T06:26:09.249Z,10.56
2023-07-30T06:28:36.171Z,10.84
2023-07-30T06:31:03.944Z,10.45
2023-07-30T06:33:33.117Z,11.28
2023-07-30T06:36:00.339Z,10.85
2023-07-30T06:38:27.142Z,11.81
2023-07-30T06:40:53.942Z,11.98
2023-07-30T06:43:20.798Z,11.26
2023-07-30T06:45:47.586Z,11.68
2023-07-30T06:48:14.669Z,12.48
2023-07-30T06:50:41.422Z,11.38
2023-07-30T06:53:08.486Z,10.70
2023-07-30T06:55:35.208Z,11.47
2023-07-30T06:58:02.086Z,10.95
2023-07-30T07:00:28.910Z,10.45
2023-07-30T07:02:55.776Z,10.83
2023-07-30T07:05:23.055Z,10.73
2023-07-30T07:07:49.844Z,11.16
2023-07-30T07:10:16.783Z,12.29
2023-07-30T07:12:44.063Z,12.73
2023-07-30T07:15:10.908Z,12.52
2023-07-30T07:17:37.801Z,12.88
2023-07-30T07:20:06.273Z,12.07
2023-07-30T07:22:33.132Z,11.56
2023-07-30T07:24:59.854Z,11.39
2023-07-30T07:27:26.962Z,12.75
2023-07-30T07:29:53.958Z,12.20
2023-07-30T07:32:20.862Z,12.02
2023-07-30T07:34:51.372Z,11.98
2023-07-30T07:37:19.909Z,11.19
2023-07-30T07:39:47.305Z,11.69
2023-07-30T07:42:14.200Z,12.47
2023-07-30T07:44:40.938Z,13.25
2023-07-30T07:47:07.707Z,11.55
2023-07-30T07:49:34.456Z,12.00
2023-07-30T07:52:01.188Z,11.95
2023-07-30T07:54:27.955Z,12.04
2023-07-30T07:56:54.801Z,11.53
2023-07-30T07:59:21.595Z,11.47
2023-07-30T08:01:48.424Z,10.78
2023-07-30T08:04:15.306Z,13.08
2023-07-30T08:06:42.258Z,13.84
2023-07-30T08:09:09.290Z,12.99
2023-07-30T08:11:36.263Z,12.19
2023-07-30T08:14:03.286Z,12.42
2023-07-30T08:16:30.148Z,11.56
2023-07-30T08:18:57.168Z,11.76
2023-07-30T08:21:24.090Z,13.54
2023-07-30T08:23:50.889Z,12.91
2023-07-30T08:26:17.728Z,12.37
2023-07-30T08:28:44.553Z,12.30
2023-07-30T08:31:11.339Z,11.24
2023-07-30T08:33:38.086Z,10.61
2023-07-30T08:36:04.923Z,12.87
2023-07-30T08:38:31.693Z,13.85
2023-07-30T08:40:58.905Z,14.93
2023-07-30T08:43:25.987Z,13.85
2023-07-30T08:45:52.910Z,13.66
2023-07-30T08:48:19.844Z,13.36
2023-07-30T08:50:47.102Z,12.03
2023-07-30T08:53:14.917Z,10.96
2023-07-30T08:55:42.681Z,12.78
2023-07-30T08:58:12.557Z,15.15
2023-07-30T09:00:42.301Z,13.36
2023-07-30T09:03:10.174Z,13.22
2023-07-30T09:05:37.942Z,13.53
2023-07-30T09:08:05.046Z,14.89
2023-07-30T09:10:31.874Z,15.14
2023-07-30T09:13:00.049Z,15.69
2023-07-30T09:15:32.666Z,15.55
2023-07-30T09:18:03.470Z,13.64
2023-07-30T09:20:41.482Z,13.26
2023-07-30T09:23:09.834Z,14.18
2023-07-30T09:25:38.011Z,14.89
2023-07-30T09:28:06.732Z,14.42
2023-07-30T09:30:34.753Z,14.32
2023-07-30T09:33:01.685Z,14.87
2023-07-30T09:35:28.543Z,15.14
2023-07-30T09:38:04.295Z,16.47
2023-07-30T09:40:39.834Z,15.61
2023-07-30T09:43:07.280Z,15.48
2023-07-30T09:45:39.097Z,17.01
2023-07-30T09:48:07.165Z,17.07
2023-07-30T09:50:38.363Z,17.28
2023-07-30T09:53:05.671Z,15.63
2023-07-30T09:55:32.640Z,16.90
2023-07-30T09:57:59.586Z,13.80
2023-07-30T10:00:28.121Z,12.92
2023-07-30T10:02:59.257Z,13.15
2023-07-30T10:05:30.074Z,15.02
2023-07-30T10:08:09.769Z,13.65
2023-07-30T10:10:36.676Z,16.56
2023-07-30T10:13:08.099Z,16.54
2023-07-30T10:15:36.086Z,15.73
2023-07-30T10:18:04.763Z,16.95
2023-07-30T10:20:33.026Z,16.83
2023-07-30T10:23:01.873Z,14.89
2023-07-30T10:25:31.677Z,14.36
2023-07-30T10:27:59.948Z,15.10
2023-07-30T10:30:33.169Z,13.97
2023-07-30T10:33:05.028Z,14.56
2023-07-30T10:35:49.117Z,15.07
2023-07-30T10:38:21.917Z,13.77
2023-07-30T10:41:03.104Z,14.85
2023-07-30T10:43:56.243Z,14.26
2023-07-30T10:46:23.050Z,15.16
2023-07-30T10:48:50.254Z,15.58
2023-07-30T10:51:18.705Z,15.76
2023-07-30T10:53:46.541Z,14.63
2023-07-30T10:56:15.097Z,14.71
2023-07-30T10:58:43.581Z,15.29
2023-07-30T11:01:10.891Z,15.93
2023-07-30T11:03:40.003Z,17.98
2023-07-30T11:06:06.977Z,16.21
2023-07-30T11:08:35.999Z,17.32
2023-07-30T11:11:03.554Z,15.42
2023-07-30T11:13:30.763Z,15.23
2023-07-30T11:15:57.535Z,14.32
2023-07-30T11:18:24.511Z,14.87
2023-07-30T11:20:51.643Z,14.53
2023-07-30T11:23:21.911Z,14.12
2023-07-30T11:25:50.409Z,14.88
2023-07-30T11:28:38.747Z,15.44
2023-07-30T11:31:08.976Z,14.68
2023-07-30T11:33:44.945Z,14.47
2023-07-30T11:36:16.223Z,13.73
2023-07-30T11:38:44.309Z,13.81
2023-07-30T11:41:12.372Z,13.65
2023-07-30T11:43:46.114Z,13.35
2023-07-30T11:46:18.679Z,12.91
2023-07-30T11:48:48.376Z,13.11
2023-07-30T11:51:35.475Z,12.69
2023-07-30T11:54:03.228Z,14.62
2023-07-30T11:56:32.139Z,16.70
2023-07-30T11:59:09.075Z,15.53
2023-07-30T12:01:38.512Z,13.82
2023-07-30T12:04:07.447Z,12.66
2023-07-30T12:06:45.061Z,12.40
2023-07-30T12:09:13.983Z,11.89
2023-07-30T12:11:59.041Z,12.31
2023-07-30T12:14:43.144Z,12.52
2023-07-30T12:17:10.412Z,12.52
2023-07-30T12:19:37.430Z,12.23
2023-07-30T12:22:04.695Z,12.03
2023-07-30T12:24:31.500Z,14.58
2023-07-30T12:26:58.508Z,16.00
2023-07-30T12:29:26.533Z,13.73
2023-07-30T12:31:54.990Z,13.71
2023-07-30T12:34:21.938Z,13.23
2023-07-30T12:36:48.708Z,12.90
2023-07-30T12:39:15.723Z,12.81
2023-07-30T12:41:42.550Z,13.13
2023-07-30T12:44:10.879Z,14.27
2023-07-30T12:46:37.738Z,13.07
2023-07-30T12:49:05.927Z,13.01
2023-07-30T12:51:34.142Z,13.00
2023-07-30T12:54:01.265Z,12.94
2023-07-30T12:56:28.082Z,12.62
2023-07-30T12:58:55.009Z,14.69
2023-07-30T13:01:21.984Z,16.55
2023-07-30T13:03:50.198Z,15.85
2023-07-30T13:06:17.338Z,14.68
2023-07-30T13:08:44.216Z,13.28
2023-07-30T13:11:11.164Z,13.19
2023-07-30T13:13:38.030Z,13.62
2023-07-30T13:16:05.151Z,12.61
2023-07-30T13:18:31.969Z,12.94
2023-07-30T13:20:58.794Z,12.52
2023-07-30T13:23:30.201Z,12.97
2023-07-30T13:25:57.219Z,13.54
2023-07-30T13:28:24.084Z,13.78
2023-07-30T13:30:52.277Z,14.71
2023-07-30T13:33:19.217Z,15.25
2023-07-30T13:35:46.060Z,13.78
2023-07-30T13:38:12.842Z,13.78
2023-07-30T13:40:39.730Z,13.24
2023-07-30T13:43:06.561Z,15.18
2023-07-30T13:45:33.433Z,15.61
2023-07-30T13:48:00.330Z,15.22
2023-07-30T13:50:27.483Z,15.62
2023-07-30T13:52:54.316Z,16.07
2023-07-30T13:55:21.314Z,16.64
2023-07-30T13:57:48.091Z,14.44
2023-07-30T14:00:15.069Z,16.13
2023-07-30T14:02:42.047Z,16.60
2023-07-30T14:05:09.454Z,15.80
2023-07-30T14:07:36.440Z,14.12
2023-07-30T14:10:03.733Z,13.98
2023-07-30T14:12:30.511Z,14.64
2023-07-30T14:14:57.307Z,13.62
2023-07-30T14:17:24.059Z,12.54
2023-07-30T14:19:50.772Z,11.32
2023-07-30T14:22:17.724Z,11.35
2023-07-30T14:24:45.956Z,10.87
2023-07-30T14:27:13.247Z,12.27
2023-07-30T14:29:40.105Z,13.42
2023-07-30T14:32:07.442Z,13.87
2023-07-30T14:34:34.294Z,13.38
2023-07-30T14:37:01.120Z,12.08
2023-07-30T14:39:28.173Z,13.37
2023-07-30T14:41:55.085Z,13.85
2023-07-30T14:44:22.589Z,13.69
2023-07-30T14:46:49.316Z,12.10
2023-07-30T14:49:16.063Z,12.04
2023-07-30T14:51:43.632Z,12.36
2023-07-30T14:54:11.562Z,13.25
2023-07-30T14:56:38.913Z,13.65
2023-07-30T14:59:05.921Z,11.56
2023-07-30T15:01:32.752Z,10.94
2023-07-30T15:04:00.146Z,11.39
2023-07-30T15:06:33.004Z,12.92
2023-07-30T15:09:00.798Z,13.39
2023-07-30T15:11:28.533Z,13.68
2023-07-30T15:13:55.344Z,15.01
2023-07-30T15:16:22.190Z,14.77
2023-07-30T15:18:49.038Z,14.08
2023-07-30T15:21:16.048Z,14.62
2023-07-30T15:23:47.204Z,14.58
2023-07-30T15:26:14.017Z,13.78
2023-07-30T15:28:41.692Z,13.84
2023-07-30T15:31:08.859Z,14.60
2023-07-30T15:33:36.741Z,14.13
2023-07-30T15:36:04.295Z,14.97
2023-07-30T15:38:31.460Z,15.75
2023-07-30T15:40:59.322Z,14.86
2023-07-30T15:43:26.379Z,14.92
2023-07-30T15:45:54.314Z,13.91
2023-07-30T15:48:21.143Z,14.68
2023-07-30T15:50:47.941Z,14.52
2023-07-30T15:53:14.908Z,14.87
2023-07-30T15:55:41.712Z,14.46
2023-07-30T15:58:08.459Z,14.80
2023-07-30T16:00:35.995Z,15.15
2023-07-30T16:03:05.563Z,13.74
2023-07-30T16:05:32.822Z,14.47
2023-07-30T16:07:59.622Z,13.77
2023-07-30T16:10:26.784Z,15.05
2023-07-30T16:12:53.652Z,13.92
2023-07-30T16:15:20.364Z,14.66
2023-07-30T16:17:47.294Z,14.60
2023-07-30T16:20:14.137Z,14.37
2023-07-30T16:22:41.097Z,14.61
2023-07-30T16:25:09.268Z,14.15
2023-07-30T16:27:36.323Z,13.61
2023-07-30T16:30:04.898Z,13.50
2023-07-30T16:32:31.780Z,13.85
2023-07-30T16:34:58.686Z,13.91
2023-07-30T16:37:25.494Z,13.48
2023-07-30T16:41:30.613Z,12.69
2023-07-30T16:43:57.510Z,12.87
2023-07-30T16:46:24.538Z,12.51
2023-07-30T16:48:51.327Z,11.67
2023-07-30T16:51:18.882Z,11.99
2023-07-30T16:53:45.749Z,12.23
2023-07-30T16:56:17.738Z,11.74
2023-07-30T16:58:44.732Z,11.72
2023-07-30T17:01:11.609Z,11.87
2023-07-30T17:03:39.505Z,11.38
2023-07-30T17:06:07.274Z,11.36
2023-07-30T17:08:34.813Z,11.91
2023-07-30T17:11:06.817Z,11.78
2023-07-30T17:13:35.281Z,11.71
2023-07-30T17:16:09.584Z,11.22
2023-07-30T17:18:36.928Z,11.29
2023-07-30T17:21:05.420Z,11.37
2023-07-30T17:23:32.836Z,11.33
2023-07-30T17:26:00.724Z,11.60
2023-07-30T17:28:30.155Z,11.35
2023-07-30T17:30:57.673Z,11.56
2023-07-30T17:33:24.823Z,10.91
2023-07-30T17:35:51.711Z,11.02
2023-07-30T17:38:18.667Z,10.82
2023-07-30T17:40:55.703Z,10.99
2023-07-30T17:43:23.835Z,10.79
2023-07-30T17:45:51.533Z,10.64
2023-07-30T17:48:18.815Z,10.90
2023-07-30T17:50:46.582Z,11.12
2023-07-30T17:53:13.630Z,11.15
2023-07-30T17:55:44.457Z,10.58
2023-07-30T17:58:11.513Z,10.17
2023-07-30T18:00:46.299Z,10.84
2023-07-30T18:03:13.478Z,10.13
2023-07-30T18:05:48.178Z,10.40
2023-07-30T18:08:16.628Z,10.47
2023-07-30T18:10:45.598Z,9.89
2023-07-30T18:13:12.680Z,10.14
2023-07-30T18:15:39.649Z,9.70
2023-07-30T18:18:07.926Z,9.86
2023-07-30T18:20:35.781Z,9.50
2023-07-30T18:23:05.891Z,9.16
2023-07-30T18:25:32.863Z,8.92
2023-07-30T18:28:00.613Z,8.59
2023-07-30T18:30:27.669Z,9.06
2023-07-30T18:32:54.532Z,8.45
2023-07-30T18:35:21.810Z,8.96
2023-07-30T18:37:48.592Z,8.88
2023-07-30T18:40:15.443Z,8.80
2023-07-30T18:42:42.295Z,8.04
2023-07-30T18:45:09.520Z,7.99
2023-07-30T18:47:36.349Z,8.28
2023-07-30T18:50:04.818Z,7.33
2023-07-30T18:52:32.409Z,7.46
2023-07-30T18:54:59.467Z,7.48
2023-07-30T18:57:26.531Z,7.64
2023-07-30T18:59:53.599Z,7.74
2023-07-30T19:02:20.666Z,7.34
2023-07-30T19:04:47.765Z,6.98
2023-07-30T19:07:14.836Z,7.33
2023-07-30T19:09:41.891Z,7.29
2023-07-30T19:12:08.940Z,7.46
2023-07-30T19:14:35.925Z,7.42
2023-07-30T19:17:02.806Z,6.86
2023-07-30T19:19:29.580Z,7.08
2023-07-30T19:21:56.621Z,7.08
2023-07-30T19:24:23.629Z,7.21
2023-07-30T19:26:51.428Z,7.14
2023-07-30T19:29:18.228Z,7.25
2023-07-30T19:31:45.034Z,7.14
2023-07-30T19:34:13.190Z,7.21
2023-07-30T19:36:40.798Z,7.10
2023-07-30T19:39:08.448Z,7.16
2023-07-30T19:41:36.142Z,7.13
2023-07-30T19:44:03.459Z,7.09
2023-07-30T19:46:31.622Z,7.00
2023-07-30T19:48:59.099Z,6.85
2023-07-30T19:51:26.466Z,7.16
2023-07-30T19:53:53.287Z,7.17
2023-07-30T19:56:20.125Z,7.42
2023-07-30T19:58:46.882Z,7.17
2023-07-30T20:01:13.848Z,7.39
2023-07-30T20:03:40.760Z,7.21
2023-07-30T20:06:09.951Z,7.38
2023-07-30T20:08:38.637Z,7.30
2023-07-30T20:11:06.849Z,6.90
2023-07-30T20:13:34.738Z,7.11
2023-07-30T20:16:02.061Z,7.01
2023-07-30T20:18:31.598Z,6.69
2023-07-30T20:20:58.951Z,6.86
2023-07-30T20:23:26.911Z,7.22
2023-07-30T20:25:53.913Z,6.96
2023-07-30T20:28:22.113Z,7.04
2023-07-30T20:30:49.387Z,7.61
2023-07-30T20:33:16.196Z,7.34
2023-07-30T20:35:43.042Z,7.35
2023-07-30T20:38:09.842Z,7.34
2023-07-30T20:40:36.654Z,7.70
2023-07-30T20:43:03.528Z,7.93
2023-07-30T20:45:31.380Z,7.51
2023-07-30T20:47:58.647Z,7.59
2023-07-30T20:50:25.519Z,7.57
2023-07-30T20:52:52.350Z,7.25
2023-07-30T20:55:20.060Z,7.30
2023-07-30T20:57:47.146Z,7.39
2023-07-30T21:00:14.825Z,7.60
2023-07-30T21:02:41.701Z,7.82
2023-07-30T21:05:09.471Z,7.28
2023-07-30T21:07:36.913Z,6.89
2023-07-30T21:10:04.377Z,7.21
2023-07-30T21:12:32.800Z,7.58
2023-07-30T21:15:03.016Z,7.47
2023-07-30T21:17:32.005Z,7.12
2023-07-30T21:19:58.956Z,7.11
2023-07-30T21:22:26.178Z,6.77
2023-07-30T21:24:52.990Z,6.84
2023-07-30T21:27:19.911Z,6.62
2023-07-30T21:29:46.943Z,7.19
2023-07-30T21:32:14.095Z,6.59
2023-07-30T21:34:42.904Z,6.66
2023-07-30T21:37:10.656Z,6.84
2023-07-30T21:39:37.741Z,7.01
2023-07-30T21:42:04.957Z,7.23
2023-07-30T21:44:33.156Z,7.12
2023-07-30T21:47:00.056Z,6.96
2023-07-30T21:49:26.850Z,6.74
2023-07-30T21:51:57.202Z,6.67
2023-07-30T21:54:24.004Z,6.73
2023-07-30T21:56:50.747Z,6.17
2023-07-30T21:59:17.590Z,6.16
2023-07-30T22:01:44.458Z,5.80
2023-07-30T22:04:11.254Z,6.10
2023-07-30T22:06:38.327Z,6.09
2023-07-30T22:09:05.400Z,5.80
2023-07-30T22:11:32.776Z,5.86
2023-07-30T22:13:59.544Z,6.10
2023-07-30T22:16:26.390Z,6.39
2023-07-30T22:18:53.222Z,6.52
2023-07-30T22:21:20.026Z,6.87
2023-07-30T22:23:46.786Z,6.54
2023-07-30T22:26:13.634Z,6.59
2023-07-30T22:28:40.465Z,6.56
2023-07-30T22:31:07.380Z,5.83
2023-07-30T22:33:34.221Z,6.44
2023-07-30T22:36:01.097Z,6.06
2023-07-30T22:38:27.950Z,6.06
2023-07-30T22:40:54.771Z,6.26
2023-07-30T22:43:22.679Z,5.98
2023-07-30T22:45:49.742Z,5.82
2023-07-30T22:48:16.629Z,5.56
2023-07-30T22:50:45.393Z,6.08
2023-07-30T22:53:12.962Z,5.28
2023-07-30T22:55:40.062Z,5.70
2023-07-30T22:58:07.056Z,5.41
2023-07-30T23:00:33.942Z,5.76
2023-07-30T23:03:01.011Z,5.35
2023-07-30T23:05:28.574Z,5.29
2023-07-30T23:07:55.448Z,5.69
2023-07-30T23:10:22.251Z,5.28
2023-07-30T23:12:49.057Z,5.43
2023-07-30T23:15:15.958Z,4.94
2023-07-30T23:17:42.830Z,5.15
2023-07-30T23:20:10.190Z,5.35
2023-07-30T23:22:37.095Z,5.29
2023-07-30T23:25:03.978Z,4.98
2023-07-30T23:27:30.765Z,5.05
2023-07-30T23:29:57.597Z,4.67
2023-07-30T23:32:24.429Z,5.03
2023-07-30T23:34:51.198Z,4.90
2023-07-30T23:37:17.950Z,4.91
2023-07-30T23:39:44.757Z,5.20
2023-07-30T23:42:11.522Z,4.89
2023-07-30T23:44:38.367Z,4.73
2023-07-30T23:47:05.507Z,4.85
2023-07-30T23:49:32.434Z,4.86
2023-07-30T23:51:59.263Z,4.94
2023-07-30T23:54:26.080Z,5.36
2023-07-30T23:56:52.945Z,5.63
2023-07-30T23:59:19.738Z,5.28
